sensor_id;sensor_type;location;lat;lon;timestamp;pressure;altitude;pressure_sealevel;temperature;humidity
54816;BME280;40715;55.752;37.884;2022-08-19T00:02:00;99702.00;;;23.21;43.86
54816;BME280;40715;55.752;37.884;2022-08-19T00:04:33;99699.44;;;23.19;43.81
54816;BME280;40715;55.752;37.884;2022-08-19T00:07:06;99693.22;;;23.19;43.85
54816;BME280;40715;55.752;37.884;2022-08-19T00:09:34;99696.22;;;23.14;43.98
54816;BME280;40715;55.752;37.884;2022-08-19T00:12:01;99702.69;;;23.12;43.72
54816;BME280;40715;55.752;37.884;2022-08-19T00:14:29;99706.75;;;23.04;44.18
54816;BME280;40715;55.752;37.884;2022-08-19T00:16:59;99710.72;;;22.99;44.42
54816;BME280;40715;55.752;37.884;2022-08-19T00:19:26;99714.72;;;22.93;44.33
54816;BME280;40715;55.752;37.884;2022-08-19T00:21:53;99726.88;;;22.86;44.42
54816;BME280;40715;55.752;37.884;2022-08-19T00:24:23;99697.59;;;22.70;44.34
54816;BME280;40715;55.752;37.884;2022-08-19T00:26:51;99722.63;;;22.83;44.16
54816;BME280;40715;55.752;37.884;2022-08-19T00:29:20;99730.03;;;22.80;44.41
54816;BME280;40715;55.752;37.884;2022-08-19T00:31:48;99741.72;;;22.79;44.27
54816;BME280;40715;55.752;37.884;2022-08-19T00:34:16;99725.00;;;22.75;44.15
54816;BME280;40715;55.752;37.884;2022-08-19T00:36:44;99712.75;;;22.71;44.30
54816;BME280;40715;55.752;37.884;2022-08-19T00:39:12;99719.63;;;22.75;44.31
54816;BME280;40715;55.752;37.884;2022-08-19T00:41:41;99717.88;;;22.74;44.36
54816;BME280;40715;55.752;37.884;2022-08-19T00:46:39;99717.88;;;22.74;44.61
54816;BME280;40715;55.752;37.884;2022-08-19T00:49:36;99730.47;;;22.73;44.47
54816;BME280;40715;55.752;37.884;2022-08-19T00:52:04;99741.53;;;22.69;44.32
54816;BME280;40715;55.752;37.884;2022-08-19T00:54:33;99750.91;;;22.63;44.42
54816;BME280;40715;55.752;37.884;2022-08-19T00:57:02;99756.69;;;22.57;44.48
54816;BME280;40715;55.752;37.884;2022-08-19T00:59:34;99753.66;;;22.49;44.85
54816;BME280;40715;55.752;37.884;2022-08-19T01:02:19;99739.38;;;22.35;44.99
54816;BME280;40715;55.752;37.884;2022-08-19T01:04:46;99755.38;;;22.37;45.27
54816;BME280;40715;55.752;37.884;2022-08-19T01:07:13;99754.91;;;22.30;45.22
54816;BME280;40715;55.752;37.884;2022-08-19T01:09:40;99766.09;;;22.24;45.73
54816;BME280;40715;55.752;37.884;2022-08-19T01:12:08;99752.03;;;22.20;45.69
54816;BME280;40715;55.752;37.884;2022-08-19T01:14:37;99749.34;;;22.20;45.53
54816;BME280;40715;55.752;37.884;2022-08-19T01:17:07;99761.66;;;22.23;45.54
54816;BME280;40715;55.752;37.884;2022-08-19T01:19:41;99750.81;;;22.24;45.62
54816;BME280;40715;55.752;37.884;2022-08-19T01:24:57;99758.03;;;22.24;45.21
54816;BME280;40715;55.752;37.884;2022-08-19T01:27:24;99764.06;;;22.28;45.41
54816;BME280;40715;55.752;37.884;2022-08-19T01:29:50;99759.75;;;22.25;45.46
54816;BME280;40715;55.752;37.884;2022-08-19T01:32:17;99760.94;;;22.21;45.69
54816;BME280;40715;55.752;37.884;2022-08-19T01:34:46;99771.00;;;22.17;45.69
54816;BME280;40715;55.752;37.884;2022-08-19T01:37:14;99768.31;;;22.17;45.49
54816;BME280;40715;55.752;37.884;2022-08-19T01:39:41;99764.13;;;22.13;45.79
54816;BME280;40715;55.752;37.884;2022-08-19T01:42:09;99752.66;;;22.11;45.88
54816;BME280;40715;55.752;37.884;2022-08-19T01:44:40;99756.84;;;22.15;45.55
54816;BME280;40715;55.752;37.884;2022-08-19T01:47:10;99752.22;;;22.17;45.86
54816;BME280;40715;55.752;37.884;2022-08-19T01:49:37;99711.53;;;21.98;45.70
54816;BME280;40715;55.752;37.884;2022-08-19T01:52:05;99742.56;;;22.15;45.52
54816;BME280;40715;55.752;37.884;2022-08-19T01:54:32;99723.97;;;22.12;45.79
54816;BME280;40715;55.752;37.884;2022-08-19T01:57:05;99733.13;;;22.09;45.89
54816;BME280;40715;55.752;37.884;2022-08-19T01:59:34;99733.97;;;22.10;45.84
54816;BME280;40715;55.752;37.884;2022-08-19T02:02:05;99730.84;;;22.03;46.14
54816;BME280;40715;55.752;37.884;2022-08-19T02:04:35;99741.28;;;22.08;45.89
54816;BME280;40715;55.752;37.884;2022-08-19T02:07:05;99751.78;;;22.11;45.67
54816;BME280;40715;55.752;37.884;2022-08-19T02:09:32;99740.06;;;21.99;46.02
54816;BME280;40715;55.752;37.884;2022-08-19T02:11:59;99762.41;;;21.99;46.00
54816;BME280;40715;55.752;37.884;2022-08-19T02:14:26;99750.88;;;21.84;46.33
54816;BME280;40715;55.752;37.884;2022-08-19T02:16:53;99759.91;;;21.83;46.35
54816;BME280;40715;55.752;37.884;2022-08-19T02:19:20;99753.75;;;21.81;46.35
54816;BME280;40715;55.752;37.884;2022-08-19T02:21:47;99759.00;;;21.83;46.36
54816;BME280;40715;55.752;37.884;2022-08-19T02:24:14;99768.69;;;21.85;46.38
54816;BME280;40715;55.752;37.884;2022-08-19T02:26:41;99755.16;;;21.87;46.25
54816;BME280;40715;55.752;37.884;2022-08-19T02:29:08;99750.56;;;21.89;46.16
54816;BME280;40715;55.752;37.884;2022-08-19T02:31:35;99763.22;;;21.87;46.45
54816;BME280;40715;55.752;37.884;2022-08-19T02:34:02;99716.38;;;21.65;46.48
54816;BME280;40715;55.752;37.884;2022-08-19T02:36:29;99764.16;;;21.86;46.38
54816;BME280;40715;55.752;37.884;2022-08-19T02:38:57;99756.13;;;21.86;46.53
54816;BME280;40715;55.752;37.884;2022-08-19T02:41:32;99755.03;;;21.76;46.72
54816;BME280;40715;55.752;37.884;2022-08-19T02:44:01;99768.34;;;21.77;46.83
54816;BME280;40715;55.752;37.884;2022-08-19T02:46:46;99775.31;;;21.80;46.74
54816;BME280;40715;55.752;37.884;2022-08-19T02:49:14;99783.25;;;21.81;46.57
54816;BME280;40715;55.752;37.884;2022-08-19T02:51:45;99776.06;;;21.82;46.60
54816;BME280;40715;55.752;37.884;2022-08-19T02:54:13;99767.94;;;21.83;46.36
54816;BME280;40715;55.752;37.884;2022-08-19T02:56:41;99777.47;;;21.87;46.49
54816;BME280;40715;55.752;37.884;2022-08-19T02:59:09;99786.94;;;21.93;46.41
54816;BME280;40715;55.752;37.884;2022-08-19T03:01:38;99776.88;;;21.97;46.26
54816;BME280;40715;55.752;37.884;2022-08-19T03:04:07;99780.00;;;22.03;46.25
54816;BME280;40715;55.752;37.884;2022-08-19T03:06:39;99779.69;;;22.08;46.20
54816;BME280;40715;55.752;37.884;2022-08-19T03:09:06;99792.91;;;22.11;46.02
54816;BME280;40715;55.752;37.884;2022-08-19T03:11:33;99790.00;;;22.14;45.72
54816;BME280;40715;55.752;37.884;2022-08-19T03:14:02;99782.63;;;22.18;45.90
54816;BME280;40715;55.752;37.884;2022-08-19T03:16:31;99783.25;;;22.21;45.88
54816;BME280;40715;55.752;37.884;2022-08-19T03:21:30;99783.59;;;22.30;45.73
54816;BME280;40715;55.752;37.884;2022-08-19T03:24:03;99776.84;;;22.37;45.70
54816;BME280;40715;55.752;37.884;2022-08-19T03:26:31;99768.28;;;22.45;45.27
54816;BME280;40715;55.752;37.884;2022-08-19T03:29:02;99774.50;;;22.58;45.24
54816;BME280;40715;55.752;37.884;2022-08-19T03:31:30;99785.38;;;22.69;45.03
54816;BME280;40715;55.752;37.884;2022-08-19T03:34:08;99781.06;;;22.67;45.03
54816;BME280;40715;55.752;37.884;2022-08-19T03:36:35;99790.28;;;22.75;44.81
54816;BME280;40715;55.752;37.884;2022-08-19T03:39:02;99786.44;;;22.80;44.89
54816;BME280;40715;55.752;37.884;2022-08-19T03:41:36;99772.66;;;22.84;44.81
54816;BME280;40715;55.752;37.884;2022-08-19T03:44:09;99777.50;;;22.92;44.32
54816;BME280;40715;55.752;37.884;2022-08-19T03:46:38;99778.09;;;23.08;44.35
54816;BME280;40715;55.752;37.884;2022-08-19T03:49:05;99778.97;;;23.22;44.03
54816;BME280;40715;55.752;37.884;2022-08-19T03:51:37;99776.88;;;23.38;43.86
54816;BME280;40715;55.752;37.884;2022-08-19T03:54:07;99769.75;;;23.50;43.23
54816;BME280;40715;55.752;37.884;2022-08-19T03:56:36;99774.09;;;23.64;42.95
54816;BME280;40715;55.752;37.884;2022-08-19T03:59:05;99780.91;;;23.81;42.97
54816;BME280;40715;55.752;37.884;2022-08-19T04:01:34;99769.59;;;23.89;42.65
54816;BME280;40715;55.752;37.884;2022-08-19T04:04:02;99780.34;;;24.13;42.32
54816;BME280;40715;55.752;37.884;2022-08-19T04:06:33;99783.56;;;24.29;41.97
54816;BME280;40715;55.752;37.884;2022-08-19T04:09:04;99783.47;;;24.42;41.53
54816;BME280;40715;55.752;37.884;2022-08-19T04:11:36;99792.13;;;24.81;40.89
54816;BME280;40715;55.752;37.884;2022-08-19T04:14:11;99787.97;;;25.34;40.51
54816;BME280;40715;55.752;37.884;2022-08-19T04:16:38;99787.84;;;25.79;39.21
54816;BME280;40715;55.752;37.884;2022-08-19T04:19:06;99794.31;;;26.21;38.62
54816;BME280;40715;55.752;37.884;2022-08-19T04:21:33;99798.47;;;26.67;37.79
54816;BME280;40715;55.752;37.884;2022-08-19T04:24:01;99793.47;;;27.24;36.85
54816;BME280;40715;55.752;37.884;2022-08-19T04:26:32;99809.19;;;28.00;35.82
54816;BME280;40715;55.752;37.884;2022-08-19T04:29:01;99809.00;;;28.61;34.55
54816;BME280;40715;55.752;37.884;2022-08-19T04:31:30;99827.44;;;29.04;33.99
54816;BME280;40715;55.752;37.884;2022-08-19T04:34:00;99816.78;;;29.31;33.02
54816;BME280;40715;55.752;37.884;2022-08-19T04:36:32;99818.47;;;29.87;32.49
54816;BME280;40715;55.752;37.884;2022-08-19T04:39:05;99813.28;;;30.83;31.04
54816;BME280;40715;55.752;37.884;2022-08-19T04:41:33;99828.44;;;31.46;29.98
54816;BME280;40715;55.752;37.884;2022-08-19T04:44:19;99809.31;;;31.29;29.29
54816;BME280;40715;55.752;37.884;2022-08-19T04:46:50;99819.25;;;31.12;29.57
54816;BME280;40715;55.752;37.884;2022-08-19T04:49:19;99798.13;;;31.41;29.27
54816;BME280;40715;55.752;37.884;2022-08-19T04:51:50;99809.00;;;32.58;27.74
54816;BME280;40715;55.752;37.884;2022-08-19T04:54:18;99827.38;;;33.45;26.92
54816;BME280;40715;55.752;37.884;2022-08-19T04:57:06;99817.94;;;33.24;26.59
54816;BME280;40715;55.752;37.884;2022-08-19T04:59:34;99843.44;;;32.50;27.07
54816;BME280;40715;55.752;37.884;2022-08-19T05:02:02;99823.97;;;31.96;27.63
54816;BME280;40715;55.752;37.884;2022-08-19T05:04:30;99820.97;;;32.15;27.64
54816;BME280;40715;55.752;37.884;2022-08-19T05:06:59;99835.63;;;32.23;27.89
54816;BME280;40715;55.752;37.884;2022-08-19T05:09:29;99822.34;;;32.20;27.45
54816;BME280;40715;55.752;37.884;2022-08-19T05:11:58;99819.06;;;32.49;27.58
54816;BME280;40715;55.752;37.884;2022-08-19T05:14:26;99815.69;;;32.30;27.00
54816;BME280;40715;55.752;37.884;2022-08-19T05:16:53;99815.00;;;32.28;27.23
54816;BME280;40715;55.752;37.884;2022-08-19T05:19:36;99811.19;;;31.96;27.70
54816;BME280;40715;55.752;37.884;2022-08-19T05:22:32;99795.94;;;31.44;28.29
54816;BME280;40715;55.752;37.884;2022-08-19T05:25:07;99811.19;;;31.88;27.93
54816;BME280;40715;55.752;37.884;2022-08-19T05:27:39;99812.25;;;32.37;27.32
54816;BME280;40715;55.752;37.884;2022-08-19T05:30:06;99813.28;;;32.68;27.21
54816;BME280;40715;55.752;37.884;2022-08-19T05:32:34;99813.53;;;33.07;27.01
54816;BME280;40715;55.752;37.884;2022-08-19T05:35:03;99827.28;;;33.69;25.99
54816;BME280;40715;55.752;37.884;2022-08-19T05:37:30;99822.34;;;34.19;25.20
54816;BME280;40715;55.752;37.884;2022-08-19T05:39:57;99830.44;;;34.89;24.75
54816;BME280;40715;55.752;37.884;2022-08-19T05:42:24;99829.41;;;35.20;24.03
54816;BME280;40715;55.752;37.884;2022-08-19T05:44:52;99819.69;;;35.47;23.94
54816;BME280;40715;55.752;37.884;2022-08-19T05:47:19;99820.00;;;35.74;23.21
54816;BME280;40715;55.752;37.884;2022-08-19T05:49:47;99814.78;;;35.79;23.21
54816;BME280;40715;55.752;37.884;2022-08-19T05:52:16;99826.78;;;36.15;23.00
54816;BME280;40715;55.752;37.884;2022-08-19T05:54:45;99823.31;;;36.49;22.39
54816;BME280;40715;55.752;37.884;2022-08-19T05:57:14;99833.31;;;36.35;22.41
54816;BME280;40715;55.752;37.884;2022-08-19T05:59:41;99839.19;;;36.10;22.47
54816;BME280;40715;55.752;37.884;2022-08-19T06:02:08;99841.41;;;36.43;22.53
54816;BME280;40715;55.752;37.884;2022-08-19T06:04:35;99829.84;;;37.05;22.02
54816;BME280;40715;55.752;37.884;2022-08-19T06:07:03;99838.53;;;38.19;21.32
54816;BME280;40715;55.752;37.884;2022-08-19T06:09:37;99846.81;;;38.45;19.82
54816;BME280;40715;55.752;37.884;2022-08-19T06:12:05;99838.25;;;37.87;20.38
54816;BME280;40715;55.752;37.884;2022-08-19T06:14:34;99833.78;;;37.79;20.19
54816;BME280;40715;55.752;37.884;2022-08-19T06:17:03;99821.34;;;37.90;20.46
54816;BME280;40715;55.752;37.884;2022-08-19T06:19:32;99839.41;;;38.46;19.96
54816;BME280;40715;55.752;37.884;2022-08-19T06:22:00;99843.38;;;39.76;19.19
54816;BME280;40715;55.752;37.884;2022-08-19T06:24:29;99834.56;;;41.00;17.66
54816;BME280;40715;55.752;37.884;2022-08-19T06:26:57;99848.34;;;41.92;17.29
54816;BME280;40715;55.752;37.884;2022-08-19T06:29:27;99848.84;;;43.26;15.70
54816;BME280;40715;55.752;37.884;2022-08-19T06:31:56;99849.38;;;44.73;14.63
54816;BME280;40715;55.752;37.884;2022-08-19T06:34:25;99866.81;;;45.46;13.55
54816;BME280;40715;55.752;37.884;2022-08-19T06:36:55;99864.59;;;45.26;13.71
54816;BME280;40715;55.752;37.884;2022-08-19T06:39:25;99871.31;;;45.75;13.58
54816;BME280;40715;55.752;37.884;2022-08-19T06:41:56;99857.34;;;45.70;13.21
54816;BME280;40715;55.752;37.884;2022-08-19T06:44:26;99855.09;;;46.91;12.60
54816;BME280;40715;55.752;37.884;2022-08-19T06:46:54;99860.38;;;46.88;12.62
54816;BME280;40715;55.752;37.884;2022-08-19T06:49:22;99863.38;;;47.24;12.00
54816;BME280;40715;55.752;37.884;2022-08-19T06:51:50;99856.84;;;47.66;11.86
54816;BME280;40715;55.752;37.884;2022-08-19T06:54:18;99859.72;;;47.92;11.64
54816;BME280;40715;55.752;37.884;2022-08-19T06:56:46;99846.38;;;48.19;11.30
54816;BME280;40715;55.752;37.884;2022-08-19T06:59:20;99849.94;;;47.79;11.51
54816;BME280;40715;55.752;37.884;2022-08-19T07:01:51;99857.00;;;48.53;11.48
54816;BME280;40715;55.752;37.884;2022-08-19T07:04:20;99858.91;;;48.01;11.20
54816;BME280;40715;55.752;37.884;2022-08-19T07:06:49;99854.94;;;47.08;11.72
54816;BME280;40715;55.752;37.884;2022-08-19T07:09:19;99874.63;;;46.59;11.89
54816;BME280;40715;55.752;37.884;2022-08-19T07:11:50;99862.06;;;45.25;12.46
54816;BME280;40715;55.752;37.884;2022-08-19T07:14:21;99859.72;;;44.60;12.91
54816;BME280;40715;55.752;37.884;2022-08-19T07:16:50;99845.28;;;43.84;13.33
54816;BME280;40715;55.752;37.884;2022-08-19T07:19:18;99871.88;;;43.15;13.71
54816;BME280;40715;55.752;37.884;2022-08-19T07:21:50;99841.19;;;42.69;14.44
54816;BME280;40715;55.752;37.884;2022-08-19T07:24:20;99852.81;;;42.48;14.06
54816;BME280;40715;55.752;37.884;2022-08-19T07:26:52;99880.28;;;41.77;14.96
54816;BME280;40715;55.752;37.884;2022-08-19T07:29:20;99910.16;;;39.84;16.25
54816;BME280;40715;55.752;37.884;2022-08-19T07:31:52;99866.28;;;38.57;17.33
54816;BME280;40715;55.752;37.884;2022-08-19T07:34:19;99857.53;;;38.00;17.52
54816;BME280;40715;55.752;37.884;2022-08-19T07:36:46;99855.13;;;37.77;18.27
54816;BME280;40715;55.752;37.884;2022-08-19T07:39:17;99875.88;;;37.79;18.67
54816;BME280;40715;55.752;37.884;2022-08-19T07:41:44;99861.59;;;37.62;18.93
54816;BME280;40715;55.752;37.884;2022-08-19T07:44:12;99859.03;;;37.47;19.13
54816;BME280;40715;55.752;37.884;2022-08-19T07:46:46;99855.19;;;37.07;19.38
54816;BME280;40715;55.752;37.884;2022-08-19T07:49:16;99863.03;;;36.53;19.98
54816;BME280;40715;55.752;37.884;2022-08-19T07:51:48;99863.41;;;36.50;19.89
54816;BME280;40715;55.752;37.884;2022-08-19T07:54:16;99872.47;;;36.07;20.65
54816;BME280;40715;55.752;37.884;2022-08-19T07:56:43;99856.84;;;35.35;21.45
54816;BME280;40715;55.752;37.884;2022-08-19T07:59:10;99862.56;;;35.55;21.19
54816;BME280;40715;55.752;37.884;2022-08-19T08:01:39;99859.84;;;35.40;21.40
54816;BME280;40715;55.752;37.884;2022-08-19T08:04:07;99899.03;;;35.55;21.52
54816;BME280;40715;55.752;37.884;2022-08-19T08:06:53;99882.63;;;35.40;21.36
54816;BME280;40715;55.752;37.884;2022-08-19T08:09:41;99866.19;;;35.40;21.21
54816;BME280;40715;55.752;37.884;2022-08-19T08:12:17;99844.03;;;34.97;21.42
54816;BME280;40715;55.752;37.884;2022-08-19T08:15:01;99872.59;;;35.18;21.31
54816;BME280;40715;55.752;37.884;2022-08-19T08:17:30;99873.88;;;34.54;21.43
54816;BME280;40715;55.752;37.884;2022-08-19T08:20:15;99857.88;;;34.19;22.13
54816;BME280;40715;55.752;37.884;2022-08-19T08:22:44;99900.72;;;34.27;22.15
54816;BME280;40715;55.752;37.884;2022-08-19T08:25:30;99899.88;;;34.50;21.88
54816;BME280;40715;55.752;37.884;2022-08-19T08:27:58;99878.31;;;34.55;21.83
54816;BME280;40715;55.752;37.884;2022-08-19T08:30:28;99887.00;;;34.12;21.74
54816;BME280;40715;55.752;37.884;2022-08-19T08:32:58;99912.63;;;33.71;22.52
54816;BME280;40715;55.752;37.884;2022-08-19T08:35:25;99877.22;;;33.55;23.09
54816;BME280;40715;55.752;37.884;2022-08-19T08:37:54;99895.28;;;33.56;22.69
54816;BME280;40715;55.752;37.884;2022-08-19T08:40:47;99884.34;;;33.00;23.00
54816;BME280;40715;55.752;37.884;2022-08-19T08:43:35;99904.34;;;32.76;23.03
54816;BME280;40715;55.752;37.884;2022-08-19T08:48:41;99887.41;;;32.23;23.70
54816;BME280;40715;55.752;37.884;2022-08-19T08:51:15;99873.72;;;31.90;23.97
54816;BME280;40715;55.752;37.884;2022-08-19T08:53:46;99913.47;;;32.17;24.24
54816;BME280;40715;55.752;37.884;2022-08-19T08:56:16;99870.41;;;32.70;24.22
54816;BME280;40715;55.752;37.884;2022-08-19T08:59:05;99874.75;;;34.31;22.92
54816;BME280;40715;55.752;37.884;2022-08-19T09:01:35;99874.53;;;35.84;20.63
54816;BME280;40715;55.752;37.884;2022-08-19T09:04:05;99885.03;;;36.82;19.63
54816;BME280;40715;55.752;37.884;2022-08-19T09:06:56;99887.50;;;37.33;19.05
54816;BME280;40715;55.752;37.884;2022-08-19T09:09:47;99873.69;;;37.61;18.48
54816;BME280;40715;55.752;37.884;2022-08-19T09:12:19;99868.59;;;38.33;18.20
54816;BME280;40715;55.752;37.884;2022-08-19T09:14:56;99888.06;;;39.32;17.91
54816;BME280;40715;55.752;37.884;2022-08-19T09:17:28;99890.72;;;39.66;16.37
54816;BME280;40715;55.752;37.884;2022-08-19T09:20:19;99884.16;;;39.67;15.76
54816;BME280;40715;55.752;37.884;2022-08-19T09:22:46;99889.59;;;39.80;15.21
54816;BME280;40715;55.752;37.884;2022-08-19T09:25:19;99896.38;;;40.23;14.00
54816;BME280;40715;55.752;37.884;2022-08-19T09:27:53;99890.22;;;40.53;13.64
54816;BME280;40715;55.752;37.884;2022-08-19T09:30:24;99904.81;;;40.60;12.79
54816;BME280;40715;55.752;37.884;2022-08-19T09:32:52;99880.53;;;40.69;13.04
54816;BME280;40715;55.752;37.884;2022-08-19T09:35:26;99893.56;;;41.49;12.82
54816;BME280;40715;55.752;37.884;2022-08-19T09:37:55;99876.03;;;42.04;13.11
54816;BME280;40715;55.752;37.884;2022-08-19T09:40:26;99869.44;;;42.17;12.87
54816;BME280;40715;55.752;37.884;2022-08-19T09:42:53;99912.28;;;40.60;13.98
54816;BME280;40715;55.752;37.884;2022-08-19T09:45:21;99905.72;;;38.91;14.08
54816;BME280;40715;55.752;37.884;2022-08-19T09:47:50;99905.44;;;37.01;15.18
54816;BME280;40715;55.752;37.884;2022-08-19T09:50:21;99897.53;;;35.38;15.78
54816;BME280;40715;55.752;37.884;2022-08-19T09:52:49;99891.50;;;34.51;16.66
54816;BME280;40715;55.752;37.884;2022-08-19T09:55:19;99917.38;;;33.86;17.06
54816;BME280;40715;55.752;37.884;2022-08-19T09:57:46;99908.19;;;33.14;17.11
54816;BME280;40715;55.752;37.884;2022-08-19T10:00:13;99903.13;;;32.78;17.75
54816;BME280;40715;55.752;37.884;2022-08-19T10:02:40;99893.72;;;32.64;17.98
54816;BME280;40715;55.752;37.884;2022-08-19T10:05:07;99898.50;;;32.46;17.58
54816;BME280;40715;55.752;37.884;2022-08-19T10:07:53;99886.56;;;32.14;17.80
54816;BME280;40715;55.752;37.884;2022-08-19T10:10:22;99892.47;;;32.01;17.62
54816;BME280;40715;55.752;37.884;2022-08-19T10:12:49;99921.34;;;31.77;17.93
54816;BME280;40715;55.752;37.884;2022-08-19T10:15:16;99932.34;;;31.67;17.99
54816;BME280;40715;55.752;37.884;2022-08-19T10:17:46;99915.50;;;31.38;17.48
54816;BME280;40715;55.752;37.884;2022-08-19T10:20:20;99891.84;;;31.30;17.69
54816;BME280;40715;55.752;37.884;2022-08-19T10:22:49;99905.72;;;31.53;17.18
54816;BME280;40715;55.752;37.884;2022-08-19T10:25:17;99902.34;;;31.59;17.01
54816;BME280;40715;55.752;37.884;2022-08-19T10:27:44;99914.69;;;31.45;16.90
54816;BME280;40715;55.752;37.884;2022-08-19T10:30:13;99929.22;;;31.28;17.55
54816;BME280;40715;55.752;37.884;2022-08-19T10:32:40;99909.56;;;31.08;18.34
54816;BME280;40715;55.752;37.884;2022-08-19T10:35:13;99910.03;;;31.03;18.80
54816;BME280;40715;55.752;37.884;2022-08-19T10:37:41;99918.28;;;30.93;18.48
54816;BME280;40715;55.752;37.884;2022-08-19T10:40:15;99931.13;;;30.65;19.34
54816;BME280;40715;55.752;37.884;2022-08-19T10:42:42;99918.69;;;30.62;19.59
54816;BME280;40715;55.752;37.884;2022-08-19T10:45:10;99913.50;;;30.51;19.38
54816;BME280;40715;55.752;37.884;2022-08-19T10:47:37;99910.75;;;30.43;19.48
54816;BME280;40715;55.752;37.884;2022-08-19T10:50:04;99905.78;;;30.28;19.43
54816;BME280;40715;55.752;37.884;2022-08-19T10:52:51;99913.56;;;30.23;19.37
54816;BME280;40715;55.752;37.884;2022-08-19T10:55:20;99948.34;;;30.20;19.34
54816;BME280;40715;55.752;37.884;2022-08-19T10:58:11;99901.47;;;29.90;19.35
54816;BME280;40715;55.752;37.884;2022-08-19T11:00:39;99893.44;;;29.98;19.28
54816;BME280;40715;55.752;37.884;2022-08-19T11:03:07;99895.56;;;30.40;19.07
54816;BME280;40715;55.752;37.884;2022-08-19T11:05:34;99912.50;;;30.52;18.85
54816;BME280;40715;55.752;37.884;2022-08-19T11:08:03;99895.78;;;30.47;19.09
54816;BME280;40715;55.752;37.884;2022-08-19T11:10:32;99898.44;;;30.57;18.81
54816;BME280;40715;55.752;37.884;2022-08-19T11:12:59;99905.25;;;30.61;18.57
54816;BME280;40715;55.752;37.884;2022-08-19T11:15:27;99937.59;;;30.46;18.60
54816;BME280;40715;55.752;37.884;2022-08-19T11:17:55;99891.50;;;30.08;18.50
54816;BME280;40715;55.752;37.884;2022-08-19T11:20:22;99909.41;;;30.01;18.84
54816;BME280;40715;55.752;37.884;2022-08-19T11:22:51;99888.56;;;30.20;18.52
54816;BME280;40715;55.752;37.884;2022-08-19T11:25:19;99919.41;;;30.46;18.29
54816;BME280;40715;55.752;37.884;2022-08-19T11:27:46;99898.00;;;30.43;18.81
54816;BME280;40715;55.752;37.884;2022-08-19T11:30:17;99891.75;;;30.33;19.22
54816;BME280;40715;55.752;37.884;2022-08-19T11:32:44;99879.00;;;30.16;19.55
54816;BME280;40715;55.752;37.884;2022-08-19T11:35:15;99885.06;;;30.09;19.93
54816;BME280;40715;55.752;37.884;2022-08-19T11:37:42;99882.19;;;29.93;20.06
54816;BME280;40715;55.752;37.884;2022-08-19T11:40:10;99902.38;;;30.08;20.43
54816;BME280;40715;55.752;37.884;2022-08-19T11:42:37;99890.41;;;30.01;20.58
54816;BME280;40715;55.752;37.884;2022-08-19T11:45:24;99886.53;;;30.04;21.15
54816;BME280;40715;55.752;37.884;2022-08-19T11:47:51;99914.09;;;30.09;21.73
54816;BME280;40715;55.752;37.884;2022-08-19T11:50:19;99901.44;;;30.00;22.42
54816;BME280;40715;55.752;37.884;2022-08-19T11:52:47;99902.78;;;29.86;22.63
54816;BME280;40715;55.752;37.884;2022-08-19T11:55:16;99911.41;;;29.71;22.90
54816;BME280;40715;55.752;37.884;2022-08-19T11:57:43;99882.75;;;29.69;23.11
54816;BME280;40715;55.752;37.884;2022-08-19T12:00:10;99908.38;;;29.56;23.47
54816;BME280;40715;55.752;37.884;2022-08-19T12:02:40;99878.09;;;29.51;23.63
54816;BME280;40715;55.752;37.884;2022-08-19T12:05:07;99901.34;;;29.64;23.71
54816;BME280;40715;55.752;37.884;2022-08-19T12:07:37;99868.75;;;29.64;23.91
54816;BME280;40715;55.752;37.884;2022-08-19T12:10:05;99871.41;;;29.73;23.81
54816;BME280;40715;55.752;37.884;2022-08-19T12:12:32;99869.22;;;29.77;23.87
54816;BME280;40715;55.752;37.884;2022-08-19T12:14:59;99889.09;;;29.87;24.13
54816;BME280;40715;55.752;37.884;2022-08-19T12:17:26;99905.94;;;29.81;24.28
54816;BME280;40715;55.752;37.884;2022-08-19T12:19:54;99868.75;;;29.64;24.12
54816;BME280;40715;55.752;37.884;2022-08-19T12:22:21;99874.59;;;29.69;24.37
54816;BME280;40715;55.752;37.884;2022-08-19T12:24:48;99851.06;;;29.59;24.84
54816;BME280;40715;55.752;37.884;2022-08-19T12:27:17;99865.78;;;29.57;24.66
54816;BME280;40715;55.752;37.884;2022-08-19T12:29:45;99895.16;;;29.43;24.92
54816;BME280;40715;55.752;37.884;2022-08-19T12:32:13;99872.78;;;29.32;25.27
54816;BME280;40715;55.752;37.884;2022-08-19T12:34:40;99898.19;;;29.21;25.16
54816;BME280;40715;55.752;37.884;2022-08-19T12:37:08;99918.63;;;29.15;25.49
54816;BME280;40715;55.752;37.884;2022-08-19T12:39:39;99914.34;;;29.13;25.59
54816;BME280;40715;55.752;37.884;2022-08-19T12:42:06;99900.25;;;29.09;25.43
54816;BME280;40715;55.752;37.884;2022-08-19T12:44:38;99878.09;;;29.23;25.51
54816;BME280;40715;55.752;37.884;2022-08-19T12:47:09;99882.50;;;29.24;25.43
54816;BME280;40715;55.752;37.884;2022-08-19T12:49:36;99855.09;;;29.27;25.28
54816;BME280;40715;55.752;37.884;2022-08-19T12:52:21;99883.75;;;29.30;25.43
54816;BME280;40715;55.752;37.884;2022-08-19T12:54:50;99896.44;;;29.39;25.28
54816;BME280;40715;55.752;37.884;2022-08-19T12:57:24;99881.03;;;29.30;25.57
54816;BME280;40715;55.752;37.884;2022-08-19T13:00:00;99848.94;;;29.25;25.56
54816;BME280;40715;55.752;37.884;2022-08-19T13:02:27;99915.75;;;29.36;25.41
54816;BME280;40715;55.752;37.884;2022-08-19T13:04:54;99859.94;;;29.24;25.26
54816;BME280;40715;55.752;37.884;2022-08-19T13:07:21;99875.91;;;29.17;25.53
54816;BME280;40715;55.752;37.884;2022-08-19T13:09:51;99880.94;;;29.12;25.87
54816;BME280;40715;55.752;37.884;2022-08-19T13:12:18;99885.94;;;29.17;25.91
54816;BME280;40715;55.752;37.884;2022-08-19T13:14:50;99882.78;;;29.12;25.81
54816;BME280;40715;55.752;37.884;2022-08-19T13:17:19;99912.22;;;29.16;25.85